sensor_id;sensor_type;location;lat;lon;timestamp;temperature;humidity
38325;DHT22;24126;52.672;13.622;2023-02-28T00:00:33;5.90;61.50
38325;DHT22;24126;52.672;13.622;2023-02-28T00:03:01;5.90;61.60
38325;DHT22;24126;52.672;13.622;2023-02-28T00:05:28;5.90;61.60
38325;DHT22;24126;52.672;13.622;2023-02-28T00:07:55;5.80;61.60
38325;DHT22;24126;52.672;13.622;2023-02-28T00:10:24;5.80;61.70
38325;DHT22;24126;52.672;13.622;2023-02-28T00:12:52;5.80;61.70
38325;DHT22;24126;52.672;13.622;2023-02-28T00:15:23;5.80;61.70
38325;DHT22;24126;52.672;13.622;2023-02-28T00:17:50;5.80;61.70
38325;DHT22;24126;52.672;13.622;2023-02-28T00:20:17;5.80;61.70
38325;DHT22;24126;52.672;13.622;2023-02-28T00:22:46;5.80;61.80
38325;DHT22;24126;52.672;13.622;2023-02-28T00:25:15;5.80;61.70
38325;DHT22;24126;52.672;13.622;2023-02-28T00:27:42;5.80;61.70
38325;DHT22;24126;52.672;13.622;2023-02-28T00:30:10;5.80;62.00
38325;DHT22;24126;52.672;13.622;2023-02-28T00:32:38;5.70;62.10
38325;DHT22;24126;52.672;13.622;2023-02-28T00:35:06;5.70;62.20
38325;DHT22;24126;52.672;13.622;2023-02-28T00:37:34;5.70;62.30
38325;DHT22;24126;52.672;13.622;2023-02-28T00:40:01;5.70;62.40
38325;DHT22;24126;52.672;13.622;2023-02-28T00:42:30;5.70;62.50
38325;DHT22;24126;52.672;13.622;2023-02-28T00:44:57;5.70;62.40
38325;DHT22;24126;52.672;13.622;2023-02-28T00:47:24;5.70;62.50
38325;DHT22;24126;52.672;13.622;2023-02-28T00:49:51;5.80;62.40
38325;DHT22;24126;52.672;13.622;2023-02-28T00:52:18;5.80;62.30
38325;DHT22;24126;52.672;13.622;2023-02-28T00:54:47;5.80;62.00
38325;DHT22;24126;52.672;13.622;2023-02-28T00:57:14;5.80;62.00
38325;DHT22;24126;52.672;13.622;2023-02-28T00:59:41;5.90;61.70
38325;DHT22;24126;52.672;13.622;2023-02-28T01:02:08;5.90;61.90
38325;DHT22;24126;52.672;13.622;2023-02-28T01:04:36;5.90;62.00
38325;DHT22;24126;52.672;13.622;2023-02-28T01:07:03;5.90;62.20
38325;DHT22;24126;52.672;13.622;2023-02-28T01:09:30;5.90;62.20
38325;DHT22;24126;52.672;13.622;2023-02-28T01:11:58;5.90;62.20
38325;DHT22;24126;52.672;13.622;2023-02-28T01:14:25;5.90;62.00
38325;DHT22;24126;52.672;13.622;2023-02-28T01:16:52;5.90;61.80
38325;DHT22;24126;52.672;13.622;2023-02-28T01:19:18;5.90;61.50
38325;DHT22;24126;52.672;13.622;2023-02-28T01:21:46;5.90;61.50
38325;DHT22;24126;52.672;13.622;2023-02-28T01:24:13;5.90;61.20
38325;DHT22;24126;52.672;13.622;2023-02-28T01:26:40;5.90;61.20
38325;DHT22;24126;52.672;13.622;2023-02-28T01:29:07;5.80;61.10
38325;DHT22;24126;52.672;13.622;2023-02-28T01:31:34;5.90;61.20
38325;DHT22;24126;52.672;13.622;2023-02-28T01:34:01;5.90;61.10
38325;DHT22;24126;52.672;13.622;2023-02-28T01:36:29;5.90;61.90
38325;DHT22;24126;52.672;13.622;2023-02-28T01:38:56;5.80;61.30
38325;DHT22;24126;52.672;13.622;2023-02-28T01:41:27;5.80;61.40
38325;DHT22;24126;52.672;13.622;2023-02-28T01:43:57;5.80;61.50
38325;DHT22;24126;52.672;13.622;2023-02-28T01:46:24;5.70;61.40
38325;DHT22;24126;52.672;13.622;2023-02-28T01:48:54;5.70;61.20
38325;DHT22;24126;52.672;13.622;2023-02-28T01:51:27;5.70;61.20
38325;DHT22;24126;52.672;13.622;2023-02-28T01:53:56;5.60;61.00
38325;DHT22;24126;52.672;13.622;2023-02-28T01:56:27;5.60;60.90
38325;DHT22;24126;52.672;13.622;2023-02-28T01:58:54;5.50;60.90
38325;DHT22;24126;52.672;13.622;2023-02-28T02:01:23;5.50;61.20
38325;DHT22;24126;52.672;13.622;2023-02-28T02:03:54;5.50;60.90
38325;DHT22;24126;52.672;13.622;2023-02-28T02:06:25;5.40;61.10
38325;DHT22;24126;52.672;13.622;2023-02-28T02:08:54;5.40;61.20
38325;DHT22;24126;52.672;13.622;2023-02-28T02:11:22;5.40;61.30
38325;DHT22;24126;52.672;13.622;2023-02-28T02:14:02;5.30;61.40
38325;DHT22;24126;52.672;13.622;2023-02-28T02:27:55;5.10;61.70
38325;DHT22;24126;52.672;13.622;2023-02-28T02:30:33;5.10;61.80
38325;DHT22;24126;52.672;13.622;2023-02-28T02:33:15;5.00;61.90
38325;DHT22;24126;52.672;13.622;2023-02-28T02:35:54;5.00;61.80
38325;DHT22;24126;52.672;13.622;2023-02-28T02:38:31;5.00;61.80
38325;DHT22;24126;52.672;13.622;2023-02-28T02:41:06;4.90;61.70
38325;DHT22;24126;52.672;13.622;2023-02-28T02:43:36;4.90;61.90
38325;DHT22;24126;52.672;13.622;2023-02-28T02:46:12;4.90;62.00
38325;DHT22;24126;52.672;13.622;2023-02-28T02:48:44;4.80;62.10
38325;DHT22;24126;52.672;13.622;2023-02-28T02:51:14;4.80;62.30
38325;DHT22;24126;52.672;13.622;2023-02-28T02:53:44;4.80;62.30
38325;DHT22;24126;52.672;13.622;2023-02-28T02:56:12;4.80;62.40
38325;DHT22;24126;52.672;13.622;2023-02-28T02:58:41;4.70;62.40
38325;DHT22;24126;52.672;13.622;2023-02-28T03:01:17;4.70;62.40
38325;DHT22;24126;52.672;13.622;2023-02-28T03:04:00;4.70;62.40
38325;DHT22;24126;52.672;13.622;2023-02-28T03:06:28;4.60;62.50
38325;DHT22;24126;52.672;13.622;2023-02-28T03:08:55;4.60;62.60
38325;DHT22;24126;52.672;13.622;2023-02-28T03:11:22;4.60;62.60
38325;DHT22;24126;52.672;13.622;2023-02-28T03:14:08;4.60;62.80
38325;DHT22;24126;52.672;13.622;2023-02-28T03:19:28;4.50;62.70
38325;DHT22;24126;52.672;13.622;2023-02-28T03:27:25;4.40;62.80
38325;DHT22;24126;52.672;13.622;2023-02-28T03:29:59;4.30;63.00
38325;DHT22;24126;52.672;13.622;2023-02-28T03:32:29;4.30;63.00
38325;DHT22;24126;52.672;13.622;2023-02-28T03:35:09;4.30;63.10
38325;DHT22;24126;52.672;13.622;2023-02-28T03:37:38;4.30;63.20
38325;DHT22;24126;52.672;13.622;2023-02-28T03:40:08;4.20;63.20
38325;DHT22;24126;52.672;13.622;2023-02-28T03:42:39;4.20;63.20
38325;DHT22;24126;52.672;13.622;2023-02-28T03:47:42;4.20;63.10
38325;DHT22;24126;52.672;13.622;2023-02-28T03:50:22;4.20;63.20
38325;DHT22;24126;52.672;13.622;2023-02-28T03:52:51;4.10;63.20
38325;DHT22;24126;52.672;13.622;2023-02-28T03:55:19;4.10;63.30
38325;DHT22;24126;52.672;13.622;2023-02-28T03:57:56;4.10;63.30
38325;DHT22;24126;52.672;13.622;2023-02-28T04:00:27;4.10;63.40
38325;DHT22;24126;52.672;13.622;2023-02-28T04:02:55;4.10;63.40
38325;DHT22;24126;52.672;13.622;2023-02-28T04:05:22;4.00;63.60
38325;DHT22;24126;52.672;13.622;2023-02-28T04:07:49;4.00;63.70
38325;DHT22;24126;52.672;13.622;2023-02-28T04:10:16;4.00;63.60
38325;DHT22;24126;52.672;13.622;2023-02-28T04:12:43;4.00;63.70
38325;DHT22;24126;52.672;13.622;2023-02-28T04:15:10;4.00;63.70
38325;DHT22;24126;52.672;13.622;2023-02-28T04:17:38;3.90;63.50
38325;DHT22;24126;52.672;13.622;2023-02-28T04:20:05;3.90;63.50
38325;DHT22;24126;52.672;13.622;2023-02-28T04:22:35;3.90;63.50
38325;DHT22;24126;52.672;13.622;2023-02-28T04:25:03;3.90;63.50
38325;DHT22;24126;52.672;13.622;2023-02-28T04:27:31;3.90;63.70
38325;DHT22;24126;52.672;13.622;2023-02-28T04:29:58;3.80;63.70
38325;DHT22;24126;52.672;13.622;2023-02-28T04:32:25;3.80;63.80
38325;DHT22;24126;52.672;13.622;2023-02-28T04:34:52;3.70;64.00
38325;DHT22;24126;52.672;13.622;2023-02-28T04:37:19;3.70;64.10
38325;DHT22;24126;52.672;13.622;2023-02-28T04:39:46;3.70;64.00
38325;DHT22;24126;52.672;13.622;2023-02-28T04:42:13;3.70;64.10
38325;DHT22;24126;52.672;13.622;2023-02-28T04:44:40;3.60;64.00
38325;DHT22;24126;52.672;13.622;2023-02-28T04:47:07;3.60;64.00
38325;DHT22;24126;52.672;13.622;2023-02-28T04:49:34;3.60;63.80
38325;DHT22;24126;52.672;13.622;2023-02-28T04:52:01;3.60;63.90
38325;DHT22;24126;52.672;13.622;2023-02-28T04:54:29;3.60;64.10
38325;DHT22;24126;52.672;13.622;2023-02-28T04:56:56;3.60;64.30
38325;DHT22;24126;52.672;13.622;2023-02-28T04:59:23;3.60;64.60
38325;DHT22;24126;52.672;13.622;2023-02-28T05:01:50;3.60;64.70
38325;DHT22;24126;52.672;13.622;2023-02-28T05:04:17;3.60;64.50
38325;DHT22;24126;52.672;13.622;2023-02-28T05:06:44;3.60;64.50
38325;DHT22;24126;52.672;13.622;2023-02-28T05:09:11;3.60;64.50
38325;DHT22;24126;52.672;13.622;2023-02-28T05:11:39;3.60;64.50
38325;DHT22;24126;52.672;13.622;2023-02-28T05:14:09;3.50;64.60
38325;DHT22;24126;52.672;13.622;2023-02-28T05:16:36;3.50;64.60
38325;DHT22;24126;52.672;13.622;2023-02-28T05:19:04;3.50;64.50
38325;DHT22;24126;52.672;13.622;2023-02-28T05:21:32;3.50;64.50
38325;DHT22;24126;52.672;13.622;2023-02-28T05:24:01;3.50;64.50
38325;DHT22;24126;52.672;13.622;2023-02-28T05:26:29;3.50;64.50
38325;DHT22;24126;52.672;13.622;2023-02-28T05:28:56;3.50;64.60
38325;DHT22;24126;52.672;13.622;2023-02-28T05:31:23;3.50;64.30
38325;DHT22;24126;52.672;13.622;2023-02-28T05:33:51;3.40;64.30
38325;DHT22;24126;52.672;13.622;2023-02-28T05:36:18;3.40;64.50
38325;DHT22;24126;52.672;13.622;2023-02-28T05:38:46;3.40;64.50
38325;DHT22;24126;52.672;13.622;2023-02-28T05:41:13;3.40;64.50
38325;DHT22;24126;52.672;13.622;2023-02-28T05:43:40;3.40;64.50
38325;DHT22;24126;52.672;13.622;2023-02-28T05:46:08;3.30;64.50
38325;DHT22;24126;52.672;13.622;2023-02-28T05:48:36;3.30;64.60
38325;DHT22;24126;52.672;13.622;2023-02-28T05:51:04;3.30;64.70
38325;DHT22;24126;52.672;13.622;2023-02-28T05:53:31;3.20;64.80
38325;DHT22;24126;52.672;13.622;2023-02-28T05:55:58;3.20;64.80
38325;DHT22;24126;52.672;13.622;2023-02-28T05:58:25;3.20;64.80
38325;DHT22;24126;52.672;13.622;2023-02-28T06:00:59;3.20;64.80
38325;DHT22;24126;52.672;13.622;2023-02-28T06:03:27;3.20;64.80
38325;DHT22;24126;52.672;13.622;2023-02-28T06:05:54;3.20;64.80
38325;DHT22;24126;52.672;13.622;2023-02-28T06:08:21;3.20;64.90
38325;DHT22;24126;52.672;13.622;2023-02-28T06:10:48;3.20;64.80
38325;DHT22;24126;52.672;13.622;2023-02-28T06:13:15;3.20;64.80
38325;DHT22;24126;52.672;13.622;2023-02-28T06:15:42;3.10;64.80
38325;DHT22;24126;52.672;13.622;2023-02-28T06:18:09;3.10;64.90
38325;DHT22;24126;52.672;13.622;2023-02-28T06:20:36;3.10;64.80
38325;DHT22;24126;52.672;13.622;2023-02-28T06:23:03;3.20;65.10
38325;DHT22;24126;52.672;13.622;2023-02-28T06:25:30;3.20;65.10
38325;DHT22;24126;52.672;13.622;2023-02-28T06:27:57;3.20;65.10
38325;DHT22;24126;52.672;13.622;2023-02-28T06:30:24;3.30;65.00
38325;DHT22;24126;52.672;13.622;2023-02-28T06:32:54;3.30;65.20
38325;DHT22;24126;52.672;13.622;2023-02-28T06:35:21;3.40;65.40
38325;DHT22;24126;52.672;13.622;2023-02-28T06:37:48;3.80;65.40
38325;DHT22;24126;52.672;13.622;2023-02-28T06:40:15;4.20;64.60
38325;DHT22;24126;52.672;13.622;2023-02-28T06:42:42;4.60;63.50
38325;DHT22;24126;52.672;13.622;2023-02-28T06:45:10;4.90;62.50
38325;DHT22;24126;52.672;13.622;2023-02-28T06:47:38;5.00;61.50
38325;DHT22;24126;52.672;13.622;2023-02-28T06:50:05;4.90;61.20
38325;DHT22;24126;52.672;13.622;2023-02-28T06:52:32;4.80;61.40
38325;DHT22;24126;52.672;13.622;2023-02-28T06:55:02;4.70;61.50
38325;DHT22;24126;52.672;13.622;2023-02-28T06:57:29;4.70;61.80
38325;DHT22;24126;52.672;13.622;2023-02-28T07:00:01;4.60;62.00
38325;DHT22;24126;52.672;13.622;2023-02-28T07:02:29;4.50;62.20
38325;DHT22;24126;52.672;13.622;2023-02-28T07:04:57;4.50;62.30
38325;DHT22;24126;52.672;13.622;2023-02-28T07:07:24;4.50;62.70
38325;DHT22;24126;52.672;13.622;2023-02-28T07:09:51;4.50;62.60
38325;DHT22;24126;52.672;13.622;2023-02-28T07:12:18;4.60;63.40
38325;DHT22;24126;52.672;13.622;2023-02-28T07:14:46;5.20;63.70
38325;DHT22;24126;52.672;13.622;2023-02-28T07:17:13;6.10;62.30
38325;DHT22;24126;52.672;13.622;2023-02-28T07:19:40;7.30;59.00
38325;DHT22;24126;52.672;13.622;2023-02-28T07:22:07;7.90;56.10
38325;DHT22;24126;52.672;13.622;2023-02-28T07:24:34;8.10;55.70
38325;DHT22;24126;52.672;13.622;2023-02-28T07:27:01;8.80;55.50
38325;DHT22;24126;52.672;13.622;2023-02-28T07:29:29;9.50;53.00
38325;DHT22;24126;52.672;13.622;2023-02-28T07:31:56;9.60;53.20
38325;DHT22;24126;52.672;13.622;2023-02-28T07:34:23;10.20;52.70
38325;DHT22;24126;52.672;13.622;2023-02-28T07:36:54;11.20;51.10
38325;DHT22;24126;52.672;13.622;2023-02-28T07:39:21;12.10;48.10
38325;DHT22;24126;52.672;13.622;2023-02-28T07:41:48;12.20;47.40
38325;DHT22;24126;52.672;13.622;2023-02-28T07:44:15;12.40;47.80
38325;DHT22;24126;52.672;13.622;2023-02-28T07:46:42;12.80;46.50
38325;DHT22;24126;52.672;13.622;2023-02-28T07:49:09;12.60;45.80
38325;DHT22;24126;52.672;13.622;2023-02-28T07:51:36;11.90;46.70
38325;DHT22;24126;52.672;13.622;2023-02-28T07:54:03;11.30;48.50
38325;DHT22;24126;52.672;13.622;2023-02-28T07:56:31;10.70;49.10
38325;DHT22;24126;52.672;13.622;2023-02-28T07:58:58;10.10;50.40
38325;DHT22;24126;52.672;13.622;2023-02-28T08:01:25;9.60;51.80
38325;DHT22;24126;52.672;13.622;2023-02-28T08:03:52;9.40;53.80
38325;DHT22;24126;52.672;13.622;2023-02-28T08:06:21;9.90;52.90
38325;DHT22;24126;52.672;13.622;2023-02-28T08:08:49;10.00;52.50
38325;DHT22;24126;52.672;13.622;2023-02-28T08:11:16;10.40;53.30
38325;DHT22;24126;52.672;13.622;2023-02-28T08:13:44;10.90;52.50
38325;DHT22;24126;52.672;13.622;2023-02-28T08:16:11;11.40;51.80
38325;DHT22;24126;52.672;13.622;2023-02-28T08:18:39;11.60;51.50
38325;DHT22;24126;52.672;13.622;2023-02-28T08:21:07;11.70;51.20
38325;DHT22;24126;52.672;13.622;2023-02-28T08:23:34;11.80;51.80
38325;DHT22;24126;52.672;13.622;2023-02-28T08:26:02;12.10;51.20
38325;DHT22;24126;52.672;13.622;2023-02-28T08:28:29;12.50;50.80
38325;DHT22;24126;52.672;13.622;2023-02-28T08:30:56;13.00;49.70
38325;DHT22;24126;52.672;13.622;2023-02-28T08:33:24;13.50;49.00
38325;DHT22;24126;52.672;13.622;2023-02-28T08:35:54;13.80;47.30
38325;DHT22;24126;52.672;13.622;2023-02-28T08:38:21;13.90;44.00
38325;DHT22;24126;52.672;13.622;2023-02-28T08:40:48;13.80;41.80
38325;DHT22;24126;52.672;13.622;2023-02-28T08:43:15;13.80;42.00
38325;DHT22;24126;52.672;13.622;2023-02-28T08:45:42;13.80;42.80
38325;DHT22;24126;52.672;13.622;2023-02-28T08:48:09;13.80;43.50
38325;DHT22;24126;52.672;13.622;2023-02-28T08:50:36;14.00;41.60
38325;DHT22;24126;52.672;13.622;2023-02-28T08:53:03;14.00;41.40
38325;DHT22;24126;52.672;13.622;2023-02-28T08:55:30;14.00;41.60
38325;DHT22;24126;52.672;13.622;2023-02-28T08:57:58;14.00;41.70
38325;DHT22;24126;52.672;13.622;2023-02-28T09:00:27;14.10;41.20
38325;DHT22;24126;52.672;13.622;2023-02-28T09:02:54;14.20;40.90
38325;DHT22;24126;52.672;13.622;2023-02-28T09:05:21;14.30;40.20
38325;DHT22;24126;52.672;13.622;2023-02-28T09:07:49;14.40;39.40
38325;DHT22;24126;52.672;13.622;2023-02-28T09:10:16;14.20;39.10
38325;DHT22;24126;52.672;13.622;2023-02-28T09:12:43;14.20;39.20
38325;DHT22;24126;52.672;13.622;2023-02-28T09:15:12;14.20;38.90
38325;DHT22;24126;52.672;13.622;2023-02-28T09:17:39;14.10;38.40
38325;DHT22;24126;52.672;13.622;2023-02-28T09:20:07;14.10;37.70
38325;DHT22;24126;52.672;13.622;2023-02-28T09:22:34;14.10;38.00
38325;DHT22;24126;52.672;13.622;2023-02-28T09:25:01;14.10;37.50
38325;DHT22;24126;52.672;13.622;2023-02-28T09:27:28;13.90;37.30
38325;DHT22;24126;52.672;13.622;2023-02-28T09:29:55;13.90;37.20
38325;DHT22;24126;52.672;13.622;2023-02-28T09:32:22;13.80;37.20
38325;DHT22;24126;52.672;13.622;2023-02-28T09:34:49;13.80;36.50
38325;DHT22;24126;52.672;13.622;2023-02-28T09:37:16;13.90;36.60
38325;DHT22;24126;52.672;13.622;2023-02-28T09:39:43;14.00;36.20
38325;DHT22;24126;52.672;13.622;2023-02-28T09:42:17;14.10;36.40
38325;DHT22;24126;52.672;13.622;2023-02-28T09:44:46;14.10;36.40
38325;DHT22;24126;52.672;13.622;2023-02-28T09:47:27;13.90;35.80
38325;DHT22;24126;52.672;13.622;2023-02-28T09:49:57;13.70;36.00
38325;DHT22;24126;52.672;13.622;2023-02-28T09:52:27;13.70;36.30
38325;DHT22;24126;52.672;13.622;2023-02-28T09:54:56;13.80;36.90
38325;DHT22;24126;52.672;13.622;2023-02-28T10:05:12;14.00;36.30
38325;DHT22;24126;52.672;13.622;2023-02-28T10:10:15;13.90;35.50
38325;DHT22;24126;52.672;13.622;2023-02-28T10:12:44;13.90;36.00
38325;DHT22;24126;52.672;13.622;2023-02-28T10:15:14;14.00;36.40
38325;DHT22;24126;52.672;13.622;2023-02-28T10:17:42;14.00;36.20
38325;DHT22;24126;52.672;13.622;2023-02-28T10:20:12;14.00;36.20
38325;DHT22;24126;52.672;13.622;2023-02-28T10:22:47;14.10;36.20
38325;DHT22;24126;52.672;13.622;2023-02-28T10:25:18;14.20;36.30
38325;DHT22;24126;52.672;13.622;2023-02-28T10:27:46;14.40;35.80
38325;DHT22;24126;52.672;13.622;2023-02-28T10:30:13;14.40;35.60
38325;DHT22;24126;52.672;13.622;2023-02-28T10:32:41;14.50;35.40
38325;DHT22;24126;52.672;13.622;2023-02-28T10:37:41;14.60;34.50
38325;DHT22;24126;52.672;13.622;2023-02-28T10:40:28;14.60;34.90
38325;DHT22;24126;52.672;13.622;2023-02-28T10:43:00;14.70;34.70
38325;DHT22;24126;52.672;13.622;2023-02-28T10:45:31;14.70;35.30
38325;DHT22;24126;52.672;13.622;2023-02-28T10:52:53;14.50;34.00
38325;DHT22;24126;52.672;13.622;2023-02-28T10:55:22;14.50;33.90
38325;DHT22;24126;52.672;13.622;2023-02-28T10:57:51;14.50;33.90
38325;DHT22;24126;52.672;13.622;2023-02-28T11:00:19;14.40;34.20
38325;DHT22;24126;52.672;13.622;2023-02-28T11:02:47;14.40;34.90
38325;DHT22;24126;52.672;13.622;2023-02-28T11:07:51;14.10;34.70
38325;DHT22;24126;52.672;13.622;2023-02-28T11:10:20;14.00;35.20
38325;DHT22;24126;52.672;13.622;2023-02-28T11:12:50;14.10;35.20
38325;DHT22;24126;52.672;13.622;2023-02-28T11:15:57;14.20;34.70
38325;DHT22;24126;52.672;13.622;2023-02-28T11:20:49;14.40;34.30
38325;DHT22;24126;52.672;13.622;2023-02-28T11:23:17;14.40;33.70
38325;DHT22;24126;52.672;13.622;2023-02-28T11:25:50;14.20;33.50
38325;DHT22;24126;52.672;13.622;2023-02-28T11:28:30;14.00;34.50
38325;DHT22;24126;52.672;13.622;2023-02-28T11:36:19;13.90;34.30
38325;DHT22;24126;52.672;13.622;2023-02-28T11:38:47;13.90;34.60
38325;DHT22;24126;52.672;13.622;2023-02-28T11:49:18;13.50;34.70
38325;DHT22;24126;52.672;13.622;2023-02-28T11:51:54;13.50;35.20
38325;DHT22;24126;52.672;13.622;2023-02-28T11:54:40;13.40;34.50
38325;DHT22;24126;52.672;13.622;2023-02-28T11:57:19;13.20;34.70
38325;DHT22;24126;52.672;13.622;2023-02-28T12:10:25;12.60;35.50
38325;DHT22;24126;52.672;13.622;2023-02-28T12:12:57;12.50;35.70
38325;DHT22;24126;52.672;13.622;2023-02-28T12:18:16;12.60;35.90
38325;DHT22;24126;52.672;13.622;2023-02-28T12:20:54;12.60;35.80
38325;DHT22;24126;52.672;13.622;2023-02-28T12:26:07;12.80;36.50
38325;DHT22;24126;52.672;13.622;2023-02-28T12:28:38;12.90;36.00
38325;DHT22;24126;52.672;13.622;2023-02-28T12:31:20;12.80;35.60
38325;DHT22;24126;52.672;13.622;2023-02-28T12:33:53;12.80;35.70
38325;DHT22;24126;52.672;13.622;2023-02-28T12:36:23;12.80;36.20
38325;DHT22;24126;52.672;13.622;2023-02-28T12:38:56;12.80;36.30
38325;DHT22;24126;52.672;13.622;2023-02-28T12:41:27;12.90;35.70
38325;DHT22;24126;52.672;13.622;2023-02-28T12:43:58;12.90;36.10
38325;DHT22;24126;52.672;13.622;2023-02-28T12:46:29;13.00;36.00
38325;DHT22;24126;52.672;13.622;2023-02-28T12:49:00;13.00;36.10
38325;DHT22;24126;52.672;13.622;2023-02-28T12:51:28;13.10;36.30
38325;DHT22;24126;52.672;13.622;2023-02-28T12:54:16;13.20;36.00
38325;DHT22;24126;52.672;13.622;2023-02-28T13:02:24;13.20;35.30
38325;DHT22;24126;52.672;13.622;2023-02-28T13:04:57;13.20;35.60
38325;DHT22;24126;52.672;13.622;2023-02-28T13:07:36;13.20;36.10
38325;DHT22;24126;52.672;13.622;2023-02-28T13:10:09;13.20;36.30
38325;DHT22;24126;52.672;13.622;2023-02-28T13:12:36;13.10;36.00
38325;DHT22;24126;52.672;13.622;2023-02-28T13:15:18;13.10;36.10
38325;DHT22;24126;52.672;13.622;2023-02-28T13:17:50;13.00;35.90
38325;DHT22;24126;52.672;13.622;2023-02-28T13:20:23;13.00;35.90
38325;DHT22;24126;52.672;13.622;2023-02-28T13:22:52;13.00;36.00
38325;DHT22;24126;52.672;13.622;2023-02-28T13:27:50;12.90;36.40
38325;DHT22;24126;52.672;13.622;2023-02-28T13:31:05;12.80;36.40
38325;DHT22;24126;52.672;13.622;2023-02-28T13:36:08;12.40;36.60
38325;DHT22;24126;52.672;13.622;2023-02-28T13:38:42;12.30;37.20
38325;DHT22;24126;52.672;13.622;2023-02-28T13:44:00;12.20;37.50
38325;DHT22;24126;52.672;13.622;2023-02-28T13:46:28;12.20;37.40
38325;DHT22;24126;52.672;13.622;2023-02-28T13:48:55;12.10;37.10
38325;DHT22;24126;52.672;13.622;2023-02-28T13:54:15;12.00;38.10
38325;DHT22;24126;52.672;13.622;2023-02-28T13:56:50;12.00;38.20
38325;DHT22;24126;52.672;13.622;2023-02-28T13:59:25;12.00;37.60
38325;DHT22;24126;52.672;13.622;2023-02-28T14:02:03;12.00;38.10
38325;DHT22;24126;52.672;13.622;2023-02-28T14:07:09;11.90;38.20
38325;DHT22;24126;52.672;13.622;2023-02-28T14:09:45;11.90;37.70
38325;DHT22;24126;52.672;13.622;2023-02-28T14:18:00;11.60;38.40
38325;DHT22;24126;52.672;13.622;2023-02-28T14:20:30;11.60;38.60
38325;DHT22;24126;52.672;13.622;2023-02-28T14:25:30;11.60;38.70
38325;DHT22;24126;52.672;13.622;2023-02-28T14:28:05;11.60;38.10
38325;DHT22;24126;52.672;13.622;2023-02-28T14:30:40;11.60;38.40
38325;DHT22;24126;52.672;13.622;2023-02-28T14:38:23;11.50;38.50
38325;DHT22;24126;52.672;13.622;2023-02-28T14:40:51;11.50;38.20
38325;DHT22;24126;52.672;13.622;2023-02-28T14:43:20;11.40;37.90
38325;DHT22;24126;52.672;13.622;2023-02-28T14:45:51;11.30;38.20
38325;DHT22;24126;52.672;13.622;2023-02-28T14:48:19;11.30;38.30
38325;DHT22;24126;52.672;13.622;2023-02-28T14:50:48;11.30;38.70
38325;DHT22;24126;52.672;13.622;2023-02-28T14:53:17;11.30;38.50
38325;DHT22;24126;52.672;13.622;2023-02-28T14:55:46;11.30;38.30
38325;DHT22;24126;52.672;13.622;2023-02-28T14:58:27;11.20;38.30
38325;DHT22;24126;52.672;13.622;2023-02-28T15:00:58;11.20;38.30
38325;DHT22;24126;52.672;13.622;2023-02-28T15:03:36;11.20;38.50
38325;DHT22;24126;52.672;13.622;2023-02-28T15:06:05;11.10;38.30
38325;DHT22;24126;52.672;13.622;2023-02-28T15:08:32;11.10;38.00
38325;DHT22;24126;52.672;13.622;2023-02-28T15:11:02;11.00;37.80
38325;DHT22;24126;52.672;13.622;2023-02-28T15:13:36;10.90;38.00
38325;DHT22;24126;52.672;13.622;2023-02-28T15:16:04;10.80;38.20
38325;DHT22;24126;52.672;13.622;2023-02-28T15:18:43;10.70;38.60
38325;DHT22;24126;52.672;13.622;2023-02-28T15:21:15;10.70;38.60
38325;DHT22;24126;52.672;13.622;2023-02-28T15:23:44;10.70;38.70
38325;DHT22;24126;52.672;13.622;2023-02-28T15:26:15;10.70;38.90
38325;DHT22;24126;52.672;13.622;2023-02-28T15:28:43;10.70;38.90
38325;DHT22;24126;52.672;13.622;2023-02-28T15:31:24;10.70;39.00
38325;DHT22;24126;52.672;13.622;2023-02-28T15:33:53;10.70;39.00
38325;DHT22;24126;52.672;13.622;2023-02-28T15:36:21;10.70;38.50
38325;DHT22;24126;52.672;13.622;2023-02-28T15:38:51;10.60;38.30
38325;DHT22;24126;52.672;13.622;2023-02-28T15:41:29;10.60;38.70
38325;DHT22;24126;52.672;13.622;2023-02-28T15:44:16;10.60;38.70
38325;DHT22;24126;52.672;13.622;2023-02-28T15:46:45;10.60;38.60
38325;DHT22;24126;52.672;13.622;2023-02-28T15:49:20;10.50;38.70
38325;DHT22;24126;52.672;13.622;2023-02-28T15:51:48;10.50;38.60
38325;DHT22;24126;52.672;13.622;2023-02-28T15:54:24;10.50;38.90
38325;DHT22;24126;52.672;13.622;2023-02-28T15:56:54;10.50;38.70
38325;DHT22;24126;52.672;13.622;2023-02-28T15:59:26;10.50;38.90
38325;DHT22;24126;52.672;13.622;2023-02-28T16:04:30;10.40;38.60
38325;DHT22;24126;52.672;13.622;2023-02-28T16:09:24;10.40;38.80
38325;DHT22;24126;52.672;13.622;2023-02-28T16:11:54;10.40;39.10
38325;DHT22;24126;52.672;13.622;2023-02-28T16:14:25;10.40;39.00
38325;DHT22;24126;52.672;13.622;2023-02-28T16:16:56;10.40;39.10
38325;DHT22;24126;52.672;13.622;2023-02-28T16:19:24;10.30;39.20
38325;DHT22;24126;52.672;13.622;2023-02-28T16:21:51;10.30;39.40
38325;DHT22;24126;52.672;13.622;2023-02-28T16:24:18;10.30;39.40
38325;DHT22;24126;52.672;13.622;2023-02-28T16:26:46;10.20;39.80
38325;DHT22;24126;52.672;13.622;2023-02-28T16:29:15;10.20;40.00
38325;DHT22;24126;52.672;13.622;2023-02-28T16:31:44;10.10;40.20
38325;DHT22;24126;52.672;13.622;2023-02-28T16:34:11;10.10;40.60
38325;DHT22;24126;52.672;13.622;2023-02-28T16:36:38;10.00;40.90
38325;DHT22;24126;52.672;13.622;2023-02-28T16:39:06;9.90;41.00
38325;DHT22;24126;52.672;13.622;2023-02-28T16:41:33;9.90;41.90
38325;DHT22;24126;52.672;13.622;2023-02-28T16:44:12;9.80;41.40
38325;DHT22;24126;52.672;13.622;2023-02-28T16:46:39;9.70;42.10
38325;DHT22;24126;52.672;13.622;2023-02-28T16:49:10;9.70;42.20
38325;DHT22;24126;52.672;13.622;2023-02-28T16:51:37;9.60;42.20
38325;DHT22;24126;52.672;13.622;2023-02-28T16:54:04;9.50;43.00
38325;DHT22;24126;52.672;13.622;2023-02-28T16:56:31;9.40;42.60
38325;DHT22;24126;52.672;13.622;2023-02-28T16:59:00;9.30;42.90
38325;DHT22;24126;52.672;13.622;2023-02-28T17:01:27;9.20;43.30
38325;DHT22;24126;52.672;13.622;2023-02-28T17:03:54;9.10;43.60
38325;DHT22;24126;52.672;13.622;2023-02-28T17:06:22;9.00;44.20
38325;DHT22;24126;52.672;13.622;2023-02-28T17:08:50;9.00;44.60
38325;DHT22;24126;52.672;13.622;2023-02-28T17:11:18;8.90;44.80
38325;DHT22;24126;52.672;13.622;2023-02-28T17:13:45;8.80;45.10
38325;DHT22;24126;52.672;13.622;2023-02-28T17:16:15;8.80;45.10
38325;DHT22;24126;52.672;13.622;2023-02-28T17:18:44;8.70;45.40
38325;DHT22;24126;52.672;13.622;2023-02-28T17:21:17;8.60;45.40
38325;DHT22;24126;52.672;13.622;2023-02-28T17:23:44;8.60;46.00
38325;DHT22;24126;52.672;13.622;2023-02-28T17:26:15;8.50;45.90
38325;DHT22;24126;52.672;13.622;2023-02-28T17:28:46;8.50;45.50
38325;DHT22;24126;52.672;13.622;2023-02-28T17:31:13;8.40;45.50